Ionia, IA

4:41 PM CDT on May 30, 2015 (GMT -0500)
IADOT | | Change Station
CLOSE
Current Station
Personal Weather Station
Location: Ionia, IA
Elevation: 1072 ft
Nearby Weather Stations

Elev 1072 ft 43.07 °N, 92.46 °W | Updated 6 days ago

Partly Cloudy
Partly Cloudy
62 °F
Feels Like 62 °F
N
15
Wind Variable Wind from NNE
Gusts 20 mph

Today
High -- | Low -- °F
--% Chance of Precip.
Yesterday
High -- | Low -- °F
Precip. -- in
5:34 AM 8:40 PM
Waxing Gibbous, 92% visible
Pressure 30.17 in
Visibility 10.0 miles
Clouds Mostly Cloudy 2200 ft
Overcast 2700 ft
Dew Point 49 °F
Humidity 63%
Rainfall in
Snow Depth Not available.
UV 2 out of 12
Pollen 6.60 out of 12
Air Quality Not available.
Flu Activity No Activity
METAR KCCY 302135Z AUTO 01015KT 10SM BKN022 OVC027 15/12 A3017 RMK AO2

More Conditions Fewer Conditions

Pressure 30.17 in
Visibility 10.0 miles
Clouds Mostly Cloudy 2200 ft
Overcast 2700 ft
Dew Point 49 °F
Humidity 63%
Rainfall in
Snow Depth Not available.
UV 2 out of 12
Pollen 6.60 out of 12
Air Quality Not available.
Flu Activity No Activity
METAR KCCY 302135Z AUTO 01015KT 10SM BKN022 OVC027 15/12 A3017 RMK AO2

More Conditions Fewer Conditions

10-Day Weather Forecast

Almanac

Astronomy

May. 30, 2015 Rise Set
Actual Time
Civil Twilight
Nautical Twilight
Astronomical Twilight
Moon
Length of Visible Light
Length of Day
Tomorrow will be .
, % of the Moon is Illuminated

Today's Extremes

State Highs State Lows

Community

WunderPhotos

Upload Photos

1,825,608 photos uploaded!

WunderBlogs® & News

Nearby

Air Quality

  Air Quality AQ Index Pollutant
Not available.

Snow Depth

Station Depth Elevation

Earthquake Activity

City Distance Mag. Time & Date
Minimum magnitude displayed is 2.5.

Coastal Water Temperatures

Place Temperature

Stations

Nearby Weather Stations

Station Location Temp. Windchill Dew Point Humidity Wind Precip. Elev Updated Type